createdAt,value
2019-04-30T00:02:34.396Z,22.83
2019-04-30T00:05:20.733Z,22.23
2019-04-30T00:08:12.075Z,22.67
2019-04-30T00:11:05.352Z,21.73
2019-04-30T00:13:58.898Z,23.00
2019-04-30T00:16:51.353Z,22.33
2019-04-30T00:19:42.949Z,23.23
2019-04-30T00:22:39.363Z,23.43
2019-04-30T00:25:28.657Z,23.57
2019-04-30T00:28:20.287Z,23.00
2019-04-30T00:31:11.893Z,23.97
2019-04-30T00:34:05.054Z,23.13
2019-04-30T00:36:57.965Z,23.37
2019-04-30T00:39:51.570Z,24.90
2019-04-30T00:42:45.649Z,24.63
2019-04-30T00:45:40.007Z,24.73
2019-04-30T00:48:31.304Z,24.93
2019-04-30T00:51:22.789Z,23.20
2019-04-30T00:54:15.274Z,23.13
2019-04-30T00:57:07.828Z,21.63
2019-04-30T01:00:00.274Z,20.40
2019-04-30T01:03:12.881Z,21.37
2019-04-30T01:06:05.409Z,20.57
2019-04-30T01:08:58.306Z,19.87
2019-04-30T01:11:50.051Z,21.13
2019-04-30T01:14:41.625Z,20.63
2019-04-30T01:17:33.154Z,20.30
2019-04-30T01:20:31.359Z,19.50
2019-04-30T01:23:20.488Z,20.67
2019-04-30T01:26:12.204Z,20.87
2019-04-30T01:29:03.904Z,20.83
2019-04-30T01:31:55.364Z,19.87
2019-04-30T01:34:49.953Z,20.13
2019-04-30T01:37:39.888Z,21.77
2019-04-30T01:40:31.259Z,20.67
2019-04-30T01:43:30.514Z,19.13
2019-04-30T01:46:15.398Z,20.20
2019-04-30T01:49:08.628Z,20.90
2019-04-30T01:52:01.748Z,21.10
2019-04-30T01:54:52.984Z,18.30
2019-04-30T01:57:53.814Z,20.03
2019-04-30T02:00:51.757Z,20.37
2019-04-30T02:03:43.297Z,20.30
2019-04-30T02:06:34.689Z,20.63
2019-04-30T02:09:25.989Z,19.90
2019-04-30T02:12:19.742Z,20.17
2019-04-30T02:15:10.707Z,19.83
2019-04-30T02:18:02.039Z,20.17
2019-04-30T02:20:53.540Z,20.73
2019-04-30T02:23:45.248Z,19.03
2019-04-30T02:26:38.381Z,19.67
2019-04-30T02:29:30.029Z,20.10
2019-04-30T02:32:21.531Z,18.33
2019-04-30T02:35:21.391Z,19.70
2019-04-30T02:38:20.210Z,18.07
2019-04-30T02:41:12.869Z,18.43
2019-04-30T02:44:05.004Z,17.70
2019-04-30T02:47:00.493Z,17.77
2019-04-30T02:50:10.174Z,17.60
2019-04-30T02:52:50.517Z,17.83
2019-04-30T02:55:46.050Z,16.43
2019-04-30T02:58:40.851Z,16.97
2019-04-30T03:01:31.213Z,16.27
2019-04-30T03:04:22.514Z,16.87
2019-04-30T03:07:13.873Z,17.83
2019-04-30T03:10:09.786Z,17.50
2019-04-30T03:13:00.194Z,17.50
2019-04-30T03:15:51.976Z,17.97
2019-04-30T03:19:10.633Z,17.23
2019-04-30T03:22:10.021Z,17.93
2019-04-30T03:25:00.307Z,17.97
2019-04-30T03:27:52.182Z,17.33
2019-04-30T03:30:44.556Z,17.90
2019-04-30T03:33:36.130Z,17.53
2019-04-30T03:36:32.174Z,18.47
2019-04-30T03:39:21.139Z,18.00
2019-04-30T03:42:12.694Z,18.77
2019-04-30T03:45:04.907Z,18.27
2019-04-30T03:47:56.398Z,18.70
2019-04-30T03:50:53.424Z,16.57
2019-04-30T03:53:42.718Z,17.73
2019-04-30T03:56:34.656Z,17.67
2019-04-30T03:59:26.762Z,16.70
2019-04-30T04:02:41.613Z,17.03
2019-04-30T04:05:40.211Z,18.13
2019-04-30T04:08:43.203Z,18.20
2019-04-30T04:11:39.641Z,16.97
2019-04-30T04:14:31.094Z,16.97
2019-04-30T04:17:23.959Z,18.73
2019-04-30T04:20:15.909Z,18.23
2019-04-30T04:23:09.667Z,18.30
2019-04-30T04:26:01.170Z,18.83
2019-04-30T04:28:52.955Z,19.57
2019-04-30T04:31:44.570Z,18.80
2019-04-30T04:34:35.893Z,20.30
2019-04-30T04:37:29.301Z,18.10
2019-04-30T04:40:21.240Z,20.20
2019-04-30T04:43:13.680Z,21.87
2019-04-30T04:46:05.347Z,21.37
2019-04-30T04:48:59.498Z,19.33
2019-04-30T04:51:50.033Z,20.93
2019-04-30T04:54:41.413Z,19.33
2019-04-30T04:57:33.059Z,19.67
2019-04-30T05:00:24.349Z,19.70
2019-04-30T05:03:24.623Z,17.73
2019-04-30T05:06:15.971Z,16.77
2019-04-30T05:09:09.733Z,17.57
2019-04-30T05:12:00.905Z,16.67
2019-04-30T05:14:52.270Z,15.20
2019-04-30T05:17:43.513Z,15.30
2019-04-30T05:20:34.797Z,13.90
2019-04-30T05:23:26.182Z,13.30
2019-04-30T05:26:19.124Z,13.60
2019-04-30T05:29:10.690Z,13.07
2019-04-30T05:32:02.000Z,12.73
2019-04-30T05:34:54.504Z,13.30
2019-04-30T05:37:45.761Z,13.83
2019-04-30T05:40:37.184Z,14.43
2019-04-30T05:43:29.103Z,15.60
2019-04-30T05:46:21.588Z,18.93
2019-04-30T05:49:13.156Z,19.57
2019-04-30T05:52:04.789Z,18.33
2019-04-30T05:54:58.509Z,18.10
2019-04-30T05:57:55.935Z,19.00
2019-04-30T06:00:43.256Z,22.47
2019-04-30T06:03:34.885Z,28.87
2019-04-30T06:06:26.143Z,28.00
2019-04-30T06:09:31.663Z,27.07
2019-04-30T06:12:39.169Z,28.07
2019-04-30T06:15:44.394Z,25.97
2019-04-30T06:18:35.695Z,28.23
2019-04-30T06:21:29.472Z,28.03
2019-04-30T06:24:20.935Z,25.97
2019-04-30T06:27:12.266Z,28.37
2019-04-30T06:30:04.045Z,27.77
2019-04-30T06:32:56.520Z,28.53
2019-04-30T06:35:49.303Z,29.33
2019-04-30T06:38:42.353Z,28.07
2019-04-30T06:41:34.054Z,27.43
2019-04-30T06:44:37.244Z,27.00
2019-04-30T06:47:32.006Z,27.97
2019-04-30T06:50:13.022Z,25.73
2019-04-30T06:53:05.092Z,23.40
2019-04-30T06:55:58.850Z,23.93
2019-04-30T06:58:52.398Z,23.90
2019-04-30T07:01:44.329Z,23.27
2019-04-30T07:04:35.962Z,23.37
2019-04-30T07:07:37.128Z,24.33
2019-04-30T07:10:26.575Z,23.00
2019-04-30T07:13:25.582Z,22.17
2019-04-30T07:16:19.024Z,21.93
2019-04-30T07:19:10.299Z,23.40
2019-04-30T07:22:01.876Z,21.33
2019-04-30T07:24:53.321Z,20.67
2019-04-30T07:27:45.094Z,18.33
2019-04-30T07:30:36.918Z,17.77
2019-04-30T07:33:29.614Z,16.63
2019-04-30T07:36:21.254Z,16.00
2019-04-30T07:39:12.846Z,16.03
2019-04-30T07:42:04.482Z,15.80
2019-04-30T07:44:55.943Z,14.87
2019-04-30T07:47:49.450Z,14.27
2019-04-30T07:50:42.210Z,14.37
2019-04-30T07:53:34.142Z,13.90
2019-04-30T07:56:29.322Z,13.90
2019-04-30T07:59:20.209Z,10.83
2019-04-30T08:02:14.665Z,10.90
2019-04-30T08:05:10.702Z,10.93
2019-04-30T08:08:16.810Z,11.53
2019-04-30T08:10:55.119Z,12.40
2019-04-30T08:13:49.415Z,12.67
2019-04-30T08:16:40.505Z,12.20
2019-04-30T08:19:31.926Z,12.20
2019-04-30T08:22:24.691Z,11.33
2019-04-30T08:25:18.790Z,11.53
2019-04-30T08:28:09.574Z,12.70
2019-04-30T08:31:01.783Z,12.97
2019-04-30T08:33:53.506Z,12.33
2019-04-30T08:36:45.362Z,11.03
2019-04-30T08:39:37.158Z,11.83
2019-04-30T08:42:33.791Z,12.37
2019-04-30T08:45:21.810Z,10.87
2019-04-30T08:48:13.337Z,10.67
2019-04-30T08:51:04.834Z,9.73
2019-04-30T08:53:58.686Z,10.13
2019-04-30T08:56:50.586Z,9.07
2019-04-30T08:59:41.810Z,9.30
2019-04-30T09:02:33.199Z,9.80
2019-04-30T09:05:30.611Z,9.97
2019-04-30T09:08:22.579Z,9.83
2019-04-30T09:11:22.639Z,10.17
2019-04-30T09:14:08.483Z,10.33
2019-04-30T09:17:00.614Z,11.43
2019-04-30T09:19:52.187Z,11.60
2019-04-30T09:22:43.587Z,13.47
2019-04-30T09:25:34.886Z,12.83
2019-04-30T09:28:26.207Z,12.23
2019-04-30T09:31:19.637Z,12.00
2019-04-30T09:34:17.164Z,13.13
2019-04-30T09:37:03.548Z,11.87
2019-04-30T09:39:55.210Z,12.57
2019-04-30T09:42:46.483Z,11.97
2019-04-30T09:45:39.252Z,13.40
2019-04-30T09:48:30.772Z,12.00
2019-04-30T09:51:24.606Z,12.10
2019-04-30T09:54:15.879Z,12.73
2019-04-30T09:57:09.130Z,14.03
2019-04-30T10:00:01.516Z,15.63
2019-04-30T10:02:53.969Z,13.10
2019-04-30T10:05:45.423Z,12.33
2019-04-30T10:08:47.940Z,10.50
2019-04-30T10:11:59.601Z,13.83
2019-04-30T10:14:50.987Z,13.43
2019-04-30T10:17:44.149Z,14.03
2019-04-30T10:20:44.301Z,26.70
2019-04-30T10:23:35.861Z,25.60
2019-04-30T10:26:28.254Z,19.07
2019-04-30T10:29:22.138Z,17.37
2019-04-30T10:32:13.786Z,21.27
2019-04-30T10:35:05.594Z,20.70
2019-04-30T10:37:57.101Z,18.97
2019-04-30T10:40:48.891Z,19.90
2019-04-30T10:43:40.278Z,20.57
2019-04-30T10:46:32.891Z,20.20
2019-04-30T10:49:24.269Z,21.53
2019-04-30T10:52:15.607Z,24.83
2019-04-30T10:55:09.241Z,23.63
2019-04-30T10:58:00.773Z,21.03
2019-04-30T11:00:52.410Z,21.40
2019-04-30T11:03:43.768Z,20.40
2019-04-30T11:06:35.411Z,19.27
2019-04-30T11:09:31.031Z,21.27
2019-04-30T11:12:23.038Z,24.63
2019-04-30T11:15:14.386Z,24.87
2019-04-30T11:18:06.358Z,25.43
2019-04-30T11:20:59.717Z,24.97
2019-04-30T11:23:51.749Z,23.67
2019-04-30T11:26:44.249Z,23.43
2019-04-30T11:29:36.409Z,23.20
2019-04-30T11:32:28.336Z,24.47
2019-04-30T11:35:20.725Z,23.80
2019-04-30T11:38:12.980Z,26.67
2019-04-30T11:41:04.620Z,28.30
2019-04-30T11:43:56.201Z,28.40
2019-04-30T11:47:23.926Z,28.13
2019-04-30T11:50:16.455Z,29.33
2019-04-30T11:53:24.095Z,27.80
2019-04-30T11:56:01.136Z,28.10
2019-04-30T11:58:52.487Z,28.63
2019-04-30T12:01:44.555Z,28.83
2019-04-30T12:04:35.946Z,28.17
2019-04-30T12:07:45.467Z,28.77
2019-04-30T12:11:00.193Z,26.80
2019-04-30T12:13:52.431Z,28.07
2019-04-30T12:16:43.866Z,28.33
2019-04-30T12:19:35.409Z,25.97
2019-04-30T12:22:29.556Z,25.20
2019-04-30T12:25:22.365Z,25.07
2019-04-30T12:28:14.702Z,25.23
2019-04-30T12:31:06.702Z,27.03
2019-04-30T12:33:58.428Z,28.13
2019-04-30T12:36:50.505Z,29.83
2019-04-30T12:39:42.022Z,30.07
2019-04-30T12:42:33.931Z,29.10
2019-04-30T12:45:25.961Z,32.60
2019-04-30T12:48:35.296Z,30.00
2019-04-30T12:52:03.961Z,28.73
2019-04-30T12:55:15.244Z,30.00
2019-04-30T12:58:01.610Z,31.60
2019-04-30T13:00:53.258Z,29.60
2019-04-30T13:03:55.865Z,27.60
2019-04-30T13:06:39.317Z,25.80
2019-04-30T13:09:31.986Z,25.43
2019-04-30T13:12:24.452Z,27.50
2019-04-30T13:15:16.735Z,27.70
2019-04-30T13:18:09.564Z,31.60
2019-04-30T13:21:01.466Z,27.93
2019-04-30T13:23:53.115Z,24.47
2019-04-30T13:26:44.408Z,22.83
2019-04-30T13:30:07.028Z,22.00
2019-04-30T13:33:15.858Z,20.17
2019-04-30T13:36:08.753Z,18.90
2019-04-30T13:39:09.356Z,19.87
2019-04-30T13:42:17.998Z,21.27
2019-04-30T13:45:08.966Z,20.50
2019-04-30T13:48:01.028Z,21.57
2019-04-30T13:50:52.819Z,21.37
2019-04-30T13:53:45.058Z,22.50
2019-04-30T13:56:36.766Z,24.23
2019-04-30T13:59:28.389Z,24.03
2019-04-30T14:02:19.695Z,22.60
2019-04-30T14:05:16.320Z,24.23
2019-04-30T14:08:31.703Z,27.20
2019-04-30T14:11:23.054Z,23.87
2019-04-30T14:14:14.815Z,24.63
2019-04-30T14:17:06.353Z,24.93
2019-04-30T14:19:58.098Z,25.83
2019-04-30T14:22:49.589Z,27.07
2019-04-30T14:25:40.975Z,24.37
2019-04-30T14:28:32.752Z,24.10
2019-04-30T14:31:26.406Z,21.43
2019-04-30T14:34:18.597Z,20.93
2019-04-30T14:37:10.440Z,22.57
2019-04-30T14:40:02.680Z,23.20
2019-04-30T14:43:23.346Z,23.00
2019-04-30T14:46:40.737Z,25.10
2019-04-30T14:50:02.604Z,23.17
2019-04-30T14:53:14.948Z,24.50
2019-04-30T14:56:23.338Z,26.57
2019-04-30T14:59:32.829Z,23.37
2019-04-30T15:02:31.695Z,24.37
2019-04-30T15:05:22.982Z,25.63
2019-04-30T15:08:14.650Z,25.43
2019-04-30T15:11:06.262Z,26.00
2019-04-30T15:13:59.161Z,25.00
2019-04-30T15:16:51.048Z,25.37
2019-04-30T15:19:42.330Z,22.97
2019-04-30T15:22:36.459Z,21.07
2019-04-30T15:25:34.203Z,22.33
2019-04-30T15:28:20.659Z,23.27
2019-04-30T15:31:11.964Z,23.27
2019-04-30T15:34:14.199Z,23.00
2019-04-30T15:37:05.571Z,22.83
2019-04-30T15:39:59.083Z,23.40
2019-04-30T15:42:52.105Z,24.07
2019-04-30T15:45:43.433Z,23.80
2019-04-30T15:48:35.015Z,21.50
2019-04-30T15:51:26.300Z,22.23
2019-04-30T15:54:19.008Z,21.73
2019-04-30T15:57:10.674Z,19.37
2019-04-30T16:00:02.032Z,20.63
2019-04-30T16:03:00.164Z,22.27
2019-04-30T16:05:53.435Z,22.50
2019-04-30T16:08:51.252Z,21.87
2019-04-30T16:11:59.845Z,20.60
2019-04-30T16:14:51.278Z,21.40
2019-04-30T16:17:44.842Z,21.83
2019-04-30T16:20:36.590Z,23.03
2019-04-30T16:23:28.920Z,23.93
2019-04-30T16:26:20.740Z,24.63
2019-04-30T16:29:12.085Z,22.77
2019-04-30T16:32:03.740Z,21.93
2019-04-30T16:34:56.174Z,24.27
2019-04-30T16:37:49.645Z,22.27
2019-04-30T16:40:41.131Z,21.23
2019-04-30T16:43:32.712Z,22.10
2019-04-30T16:46:24.303Z,26.90
2019-04-30T16:49:17.802Z,26.77
2019-04-30T16:52:10.073Z,26.40
2019-04-30T16:55:01.644Z,25.20
2019-04-30T16:57:53.294Z,23.00
2019-04-30T17:00:45.377Z,21.03
2019-04-30T17:03:40.982Z,20.53
2019-04-30T17:06:34.295Z,19.00
2019-04-30T17:09:37.756Z,21.00
2019-04-30T17:12:35.474Z,21.60
2019-04-30T17:15:29.277Z,21.53
2019-04-30T17:18:20.798Z,22.60
2019-04-30T17:21:12.336Z,21.70
2019-04-30T17:24:04.148Z,22.73
2019-04-30T17:26:55.773Z,22.53
2019-04-30T17:29:47.590Z,22.53
2019-04-30T17:32:39.777Z,22.10
2019-04-30T17:35:31.774Z,20.37
2019-04-30T17:38:23.453Z,20.27
2019-04-30T17:41:15.226Z,19.07
2019-04-30T17:44:08.782Z,19.53
2019-04-30T17:47:00.187Z,20.00
2019-04-30T17:49:52.152Z,20.17
2019-04-30T17:52:43.818Z,20.53
2019-04-30T17:55:36.144Z,21.67
2019-04-30T17:58:28.223Z,19.73
2019-04-30T18:01:19.888Z,21.20
2019-04-30T18:04:11.275Z,19.73
2019-04-30T18:07:02.659Z,19.33
2019-04-30T18:09:55.222Z,19.73
2019-04-30T18:12:47.328Z,20.33
2019-04-30T18:15:38.957Z,20.87
2019-04-30T18:18:44.370Z,19.37
2019-04-30T18:21:43.479Z,20.30
2019-04-30T18:24:40.624Z,21.00
2019-04-30T18:27:43.948Z,20.60
2019-04-30T18:30:33.332Z,19.67
2019-04-30T18:33:24.725Z,20.37
2019-04-30T18:36:16.373Z,20.27
2019-04-30T18:39:09.183Z,18.67
2019-04-30T18:42:02.329Z,19.53
2019-04-30T18:44:54.002Z,19.80
2019-04-30T18:47:45.344Z,20.40
2019-04-30T18:50:36.801Z,20.23
2019-04-30T18:53:29.773Z,20.13
2019-04-30T18:56:21.094Z,20.20
2019-04-30T18:59:12.397Z,20.80
2019-04-30T19:02:05.683Z,20.50
2019-04-30T19:04:57.237Z,20.13
2019-04-30T19:07:54.118Z,20.73
2019-04-30T19:11:08.945Z,21.30
2019-04-30T19:14:29.356Z,21.40
2019-04-30T19:17:43.318Z,21.17
2019-04-30T19:20:42.187Z,22.20
2019-04-30T19:23:33.880Z,22.23
2019-04-30T19:26:25.555Z,22.70
2019-04-30T19:29:17.317Z,22.50
2019-04-30T19:32:09.515Z,22.00
2019-04-30T19:35:01.276Z,20.83
2019-04-30T19:37:54.165Z,20.70
2019-04-30T19:40:45.966Z,21.37
2019-04-30T19:43:39.086Z,21.20
2019-04-30T19:46:31.043Z,20.50
2019-04-30T19:49:22.427Z,21.80
2019-04-30T19:52:15.076Z,20.93
2019-04-30T19:55:07.739Z,21.40
2019-04-30T19:57:59.905Z,22.77
2019-04-30T20:00:51.457Z,23.80
2019-04-30T20:03:42.848Z,23.03
2019-04-30T20:06:34.421Z,23.20
2019-04-30T20:09:25.813Z,23.93
2019-04-30T20:12:18.732Z,22.03
2019-04-30T20:15:19.314Z,22.07
2019-04-30T20:18:03.822Z,22.70
2019-04-30T20:21:00.893Z,21.63
2019-04-30T20:23:49.975Z,22.03
2019-04-30T20:26:41.341Z,21.97
2019-04-30T20:29:32.816Z,22.53
2019-04-30T20:32:33.926Z,22.70
2019-04-30T20:35:17.234Z,23.47
2019-04-30T20:38:35.094Z,22.80
2019-04-30T20:41:28.558Z,22.73
2019-04-30T20:44:20.492Z,23.63
2019-04-30T20:47:11.901Z,24.47
2019-04-30T20:50:03.448Z,25.10
2019-04-30T20:52:55.032Z,24.50
2019-04-30T20:55:46.645Z,21.83
2019-04-30T20:58:44.704Z,22.83
2019-04-30T21:01:31.629Z,24.20
2019-04-30T21:04:23.130Z,21.97
2019-04-30T21:07:14.724Z,23.43
2019-04-30T21:10:10.105Z,22.83
2019-04-30T21:13:01.798Z,23.93
2019-04-30T21:15:55.013Z,23.20
2019-04-30T21:18:47.079Z,23.03
2019-04-30T21:21:38.796Z,23.73
2019-04-30T21:24:30.462Z,25.00
2019-04-30T21:27:22.727Z,24.70
2019-04-30T21:30:14.044Z,24.00
2019-04-30T21:33:26.350Z,25.20
2019-04-30T21:36:21.556Z,24.20
2019-04-30T21:39:13.152Z,25.57
2019-04-30T21:42:04.574Z,25.60
2019-04-30T21:44:56.341Z,26.57
2019-04-30T21:47:56.109Z,26.93
2019-04-30T21:50:41.272Z,27.53
2019-04-30T21:53:32.941Z,29.33
2019-04-30T21:56:24.427Z,28.77
2019-04-30T21:59:24.284Z,29.13
2019-04-30T22:02:10.401Z,27.23
2019-04-30T22:05:02.049Z,28.97
2019-04-30T22:07:55.294Z,30.80
2019-04-30T22:10:47.092Z,29.30
2019-04-30T22:13:39.665Z,29.57
2019-04-30T22:16:32.081Z,32.03
2019-04-30T22:19:23.771Z,29.73
2019-04-30T22:22:15.312Z,30.10
2019-04-30T22:25:09.425Z,29.77
2019-04-30T22:28:00.976Z,30.40
2019-04-30T22:30:52.583Z,29.50
2019-04-30T22:33:44.075Z,29.10
2019-04-30T22:36:43.137Z,27.20
2019-04-30T22:39:39.697Z,26.80
2019-04-30T22:42:34.205Z,28.87
2019-04-30T22:45:30.828Z,27.23
2019-04-30T22:48:22.323Z,27.43
2019-04-30T22:51:14.190Z,27.43
2019-04-30T22:54:05.707Z,27.80
2019-04-30T22:56:57.134Z,29.07
2019-04-30T22:59:49.953Z,26.77
2019-04-30T23:02:54.411Z,26.73
2019-04-30T23:05:46.002Z,25.23
2019-04-30T23:08:37.820Z,26.70
2019-04-30T23:11:29.348Z,26.27
2019-04-30T23:14:20.729Z,28.10
2019-04-30T23:17:12.526Z,28.63
2019-04-30T23:20:06.302Z,27.27
2019-04-30T23:22:57.866Z,28.77
2019-04-30T23:25:49.066Z,29.93
2019-04-30T23:28:40.427Z,29.63
2019-04-30T23:31:32.486Z,29.67
2019-04-30T23:34:24.098Z,31.40
2019-04-30T23:37:16.709Z,28.97
2019-04-30T23:40:27.208Z,29.43
2019-04-30T23:43:18.968Z,29.43
2019-04-30T23:46:10.684Z,30.10
2019-04-30T23:49:01.932Z,29.80
2019-04-30T23:51:53.312Z,29.87
2019-04-30T23:54:44.933Z,29.73
2019-04-30T23:57:36.313Z,27.77
